createdAt,value
2018-06-24T00:01:25.393Z,20.46
2018-06-24T00:03:55.026Z,20.39
2018-06-24T00:06:24.639Z,20.19
2018-06-24T00:08:54.197Z,19.98
2018-06-24T00:11:23.942Z,19.94
2018-06-24T00:13:53.581Z,19.91
2018-06-24T00:16:23.210Z,19.86
2018-06-24T00:18:52.838Z,19.85
2018-06-24T00:21:22.375Z,19.87
2018-06-24T00:23:51.984Z,19.86
2018-06-24T00:26:21.327Z,19.89
2018-06-24T00:28:50.955Z,19.89
2018-06-24T00:31:20.468Z,19.89
2018-06-24T00:33:50.008Z,19.89
2018-06-24T00:36:19.278Z,19.90
2018-06-24T00:38:49.726Z,19.87
2018-06-24T00:41:19.326Z,19.89
2018-06-24T00:43:49.046Z,19.94
2018-06-24T00:46:19.141Z,20.07
2018-06-24T00:48:48.695Z,20.16
2018-06-24T00:51:17.963Z,20.19
2018-06-24T00:53:47.925Z,20.33
2018-06-24T00:56:18.085Z,20.42
2018-06-24T00:58:47.751Z,20.49
2018-06-24T01:01:17.333Z,20.53
2018-06-24T01:03:46.948Z,20.58
2018-06-24T01:06:17.161Z,20.58
2018-06-24T01:08:46.697Z,20.45
2018-06-24T01:11:16.258Z,20.30
2018-06-24T01:13:45.735Z,20.13
2018-06-24T01:16:15.318Z,19.96
2018-06-24T01:18:44.886Z,19.86
2018-06-24T01:21:14.446Z,19.79
2018-06-24T01:23:44.716Z,19.73
2018-06-24T01:26:14.256Z,19.68
2018-06-24T01:28:43.908Z,19.62
2018-06-24T01:31:13.418Z,19.60
2018-06-24T01:33:43.106Z,19.57
2018-06-24T01:36:12.679Z,19.58
2018-06-24T01:38:42.483Z,19.52
2018-06-24T01:41:12.009Z,19.43
2018-06-24T01:43:41.499Z,19.39
2018-06-24T01:46:11.053Z,19.45
2018-06-24T01:48:40.579Z,19.46
2018-06-24T01:51:10.303Z,19.43
2018-06-24T01:53:39.843Z,19.36
2018-06-24T01:56:09.359Z,19.22
2018-06-24T01:58:39.180Z,19.08
2018-06-24T02:01:09.012Z,18.98
2018-06-24T02:03:38.759Z,18.94
2018-06-24T02:06:08.281Z,18.89
2018-06-24T02:08:38.147Z,18.95
2018-06-24T02:11:07.761Z,18.98
2018-06-24T02:13:37.931Z,19.02
2018-06-24T02:16:07.509Z,19.03
2018-06-24T02:18:37.621Z,19.01
2018-06-24T02:21:08.322Z,19.10
2018-06-24T02:23:37.831Z,19.17
2018-06-24T02:26:08.269Z,19.26
2018-06-24T02:28:38.211Z,19.28
2018-06-24T02:31:07.836Z,19.34
2018-06-24T02:33:37.397Z,19.54
2018-06-24T02:36:06.902Z,19.64
2018-06-24T02:38:36.476Z,19.81
2018-06-24T02:41:06.030Z,19.88
2018-06-24T02:43:35.676Z,19.89
2018-06-24T02:46:06.055Z,19.98
2018-06-24T02:48:36.167Z,19.95
2018-06-24T02:51:05.755Z,19.82
2018-06-24T02:53:36.044Z,19.60
2018-06-24T02:56:05.907Z,19.42
2018-06-24T02:58:35.439Z,19.27
2018-06-24T03:01:07.903Z,19.30
2018-06-24T03:03:37.502Z,19.27
2018-06-24T03:06:07.338Z,19.35
2018-06-24T03:08:36.917Z,19.26
2018-06-24T03:11:07.253Z,19.17
2018-06-24T03:13:36.781Z,19.19
2018-06-24T03:16:06.960Z,19.16
2018-06-24T03:18:37.146Z,19.13
2018-06-24T03:21:06.762Z,19.09
2018-06-24T03:23:36.336Z,19.00
2018-06-24T03:26:06.021Z,18.87
2018-06-24T03:28:35.535Z,18.82
2018-06-24T03:31:05.172Z,18.77
2018-06-24T03:33:34.777Z,18.86
2018-06-24T03:36:04.371Z,18.94
2018-06-24T03:38:33.907Z,18.93
2018-06-24T03:41:03.467Z,18.96
2018-06-24T03:43:32.968Z,19.05
2018-06-24T03:46:02.449Z,19.13
2018-06-24T03:48:31.910Z,19.18
2018-06-24T03:51:01.487Z,19.27
2018-06-24T03:53:31.002Z,19.38
2018-06-24T03:56:01.144Z,19.50
2018-06-24T03:58:30.633Z,19.56
2018-06-24T04:01:00.224Z,19.65
2018-06-24T04:03:29.778Z,19.76
2018-06-24T04:05:59.758Z,19.82
2018-06-24T04:08:29.928Z,19.90
2018-06-24T04:10:59.395Z,20.13
2018-06-24T04:13:28.908Z,20.24
2018-06-24T04:16:06.428Z,20.43
2018-06-24T04:18:43.845Z,20.45
2018-06-24T04:21:14.310Z,20.66
2018-06-24T04:23:45.452Z,20.93
2018-06-24T04:26:14.956Z,21.19
2018-06-24T04:28:44.584Z,21.45
2018-06-24T04:31:14.056Z,21.75
2018-06-24T04:33:44.156Z,21.94
2018-06-24T04:36:13.733Z,22.11
2018-06-24T04:38:43.194Z,22.21
2018-06-24T04:41:12.758Z,22.38
2018-06-24T04:43:42.410Z,22.42
2018-06-24T04:46:11.990Z,22.65
2018-06-24T04:48:42.155Z,22.83
2018-06-24T04:51:11.636Z,22.98
2018-06-24T04:53:41.139Z,23.11
2018-06-24T04:56:11.237Z,23.27
2018-06-24T04:58:40.695Z,23.50
2018-06-24T05:01:10.333Z,23.71
2018-06-24T05:03:39.809Z,23.68
2018-06-24T05:06:09.272Z,23.63
2018-06-24T05:08:38.762Z,23.57
2018-06-24T05:11:08.759Z,23.58
2018-06-24T05:13:39.401Z,23.88
2018-06-24T05:16:08.893Z,24.02
2018-06-24T05:18:39.516Z,24.23
2018-06-24T05:21:08.968Z,24.36
2018-06-24T05:23:39.052Z,24.45
2018-06-24T05:26:08.574Z,24.57
2018-06-24T05:28:38.157Z,24.71
2018-06-24T05:31:07.740Z,24.86
2018-06-24T05:33:37.699Z,25.03
2018-06-24T05:36:07.181Z,25.32
2018-06-24T05:38:36.733Z,25.54
2018-06-24T05:41:06.294Z,25.83
2018-06-24T05:43:35.772Z,25.96
2018-06-24T05:46:05.502Z,26.08
2018-06-24T05:48:35.008Z,26.40
2018-06-24T05:51:04.526Z,26.74
2018-06-24T05:53:34.054Z,27.14
2018-06-24T05:56:03.523Z,27.45
2018-06-24T05:58:33.004Z,27.65
2018-06-24T06:01:03.213Z,28.14
2018-06-24T06:03:32.730Z,29.31
2018-06-24T06:06:02.267Z,30.14
2018-06-24T06:08:31.707Z,30.34
2018-06-24T06:11:01.157Z,30.89
2018-06-24T06:13:30.720Z,31.30
2018-06-24T06:16:00.234Z,31.58
2018-06-24T06:18:29.716Z,31.40
2018-06-24T06:20:59.241Z,30.50
2018-06-24T06:23:29.816Z,30.02
2018-06-24T06:25:59.912Z,29.71
2018-06-24T06:28:29.348Z,30.05
2018-06-24T06:30:58.845Z,30.69
2018-06-24T06:33:29.200Z,30.51
2018-06-24T06:35:59.119Z,30.80
2018-06-24T06:38:29.459Z,31.35
2018-06-24T06:40:58.930Z,31.63
2018-06-24T06:43:29.291Z,31.44
2018-06-24T06:45:59.598Z,31.64
2018-06-24T06:48:29.235Z,32.30
2018-06-24T06:50:59.121Z,32.41
2018-06-24T06:53:29.061Z,32.14
2018-06-24T06:55:58.675Z,31.89
2018-06-24T06:58:28.307Z,32.09
2018-06-24T07:00:57.810Z,32.72
2018-06-24T07:03:27.330Z,32.59
2018-06-24T07:05:56.785Z,31.80
2018-06-24T07:08:26.292Z,31.49
2018-06-24T07:10:55.997Z,31.35
2018-06-24T07:13:25.520Z,31.23
2018-06-24T07:15:55.044Z,31.47
2018-06-24T07:18:24.694Z,32.11
2018-06-24T07:20:54.730Z,31.68
2018-06-24T07:23:24.222Z,31.92
2018-06-24T07:25:53.787Z,31.96
2018-06-24T07:28:23.278Z,31.91
2018-06-24T07:30:52.786Z,32.46
2018-06-24T07:33:22.339Z,32.90
2018-06-24T07:35:52.767Z,33.49
2018-06-24T07:38:22.745Z,33.09
2018-06-24T07:40:53.166Z,32.41
2018-06-24T07:43:23.200Z,32.13
2018-06-24T07:45:52.746Z,31.76
2018-06-24T07:48:22.262Z,31.50
2018-06-24T07:50:52.248Z,31.46
2018-06-24T07:53:21.777Z,31.22
2018-06-24T07:55:51.455Z,31.47
2018-06-24T07:58:21.456Z,32.18
2018-06-24T08:00:51.002Z,33.18
2018-06-24T08:03:20.540Z,33.37
2018-06-24T08:05:51.902Z,33.39
2018-06-24T08:08:21.601Z,33.95
2018-06-24T08:10:51.290Z,35.22
2018-06-24T08:13:20.832Z,36.18
2018-06-24T08:15:50.699Z,36.92
2018-06-24T08:18:20.206Z,36.88
2018-06-24T08:20:49.831Z,35.13
2018-06-24T08:23:19.350Z,33.71
2018-06-24T08:25:48.865Z,33.46
2018-06-24T08:28:18.301Z,33.47
2018-06-24T08:30:47.984Z,33.45
2018-06-24T08:33:18.324Z,33.20
2018-06-24T08:35:48.530Z,32.90
2018-06-24T08:38:18.720Z,33.29
2018-06-24T08:40:48.212Z,33.08
2018-06-24T08:43:17.728Z,33.16
2018-06-24T08:45:47.204Z,34.10
2018-06-24T08:48:16.848Z,35.25
2018-06-24T08:50:46.330Z,35.77
2018-06-24T08:53:15.788Z,36.29
2018-06-24T08:55:45.260Z,37.21
2018-06-24T08:58:14.818Z,37.28
2018-06-24T09:00:44.409Z,37.08
2018-06-24T09:03:13.861Z,37.38
2018-06-24T09:05:43.450Z,37.90
2018-06-24T09:08:13.026Z,37.77
2018-06-24T09:10:42.231Z,37.61
2018-06-24T09:13:11.581Z,37.74
2018-06-24T09:15:42.059Z,38.27
2018-06-24T09:18:11.653Z,38.26
2018-06-24T09:20:41.418Z,37.91
2018-06-24T09:23:10.905Z,38.02
2018-06-24T09:25:40.418Z,38.23
2018-06-24T09:28:09.944Z,38.73
2018-06-24T09:30:39.624Z,38.45
2018-06-24T09:33:09.084Z,38.31
2018-06-24T09:35:38.578Z,37.12
2018-06-24T09:38:08.136Z,37.38
2018-06-24T09:40:37.638Z,37.13
2018-06-24T09:43:07.172Z,36.98
2018-06-24T09:45:36.768Z,36.71
2018-06-24T09:48:06.719Z,37.47
2018-06-24T09:50:36.299Z,37.96
2018-06-24T09:53:05.818Z,38.42
2018-06-24T09:55:35.146Z,38.83
2018-06-24T09:58:04.767Z,38.51
2018-06-24T10:00:34.292Z,38.82
2018-06-24T10:03:04.080Z,39.26
2018-06-24T10:05:33.536Z,39.64
2018-06-24T10:08:03.023Z,39.70
2018-06-24T10:10:32.881Z,39.08
2018-06-24T10:13:02.069Z,38.61
2018-06-24T10:15:31.776Z,38.88
2018-06-24T10:18:01.380Z,39.77
2018-06-24T10:20:30.860Z,39.64
2018-06-24T10:23:00.427Z,39.33
2018-06-24T10:25:29.914Z,39.74
2018-06-24T10:27:59.435Z,39.53
2018-06-24T10:30:28.945Z,38.90
2018-06-24T10:32:58.206Z,38.99
2018-06-24T10:35:27.742Z,39.42
2018-06-24T10:37:57.301Z,39.37
2018-06-24T10:40:26.948Z,38.27
2018-06-24T10:42:56.549Z,37.30
2018-06-24T10:45:26.034Z,37.16
2018-06-24T10:47:55.526Z,37.84
2018-06-24T10:50:25.394Z,37.62
2018-06-24T10:52:54.966Z,37.36
2018-06-24T10:55:24.448Z,37.39
2018-06-24T10:57:53.694Z,37.28
2018-06-24T11:00:23.158Z,37.32
2018-06-24T11:02:52.338Z,37.84
2018-06-24T11:05:21.847Z,37.94
2018-06-24T11:07:51.353Z,37.54
2018-06-24T11:10:21.040Z,37.01
2018-06-24T11:12:51.332Z,36.27
2018-06-24T11:15:21.791Z,35.92
2018-06-24T11:17:51.292Z,35.72
2018-06-24T11:20:21.430Z,35.79
2018-06-24T11:22:52.996Z,35.89
2018-06-24T11:25:22.541Z,35.57
2018-06-24T11:27:52.091Z,35.52
2018-06-24T11:30:21.834Z,36.11
2018-06-24T11:32:51.372Z,35.53
2018-06-24T11:35:20.992Z,35.06
2018-06-24T11:37:50.499Z,35.05
2018-06-24T11:40:19.702Z,34.92
2018-06-24T11:42:48.953Z,35.21
2018-06-24T11:45:18.421Z,36.19
2018-06-24T11:47:49.025Z,36.41
2018-06-24T11:50:18.433Z,36.35
2018-06-24T11:52:47.906Z,36.01
2018-06-24T11:55:17.385Z,35.69
2018-06-24T11:57:46.897Z,35.86
2018-06-24T12:00:16.397Z,36.05
2018-06-24T12:02:46.792Z,37.07
2018-06-24T12:05:16.367Z,38.03
2018-06-24T12:07:46.324Z,38.02
2018-06-24T12:10:15.530Z,37.00
2018-06-24T12:12:44.991Z,36.33
2018-06-24T12:15:14.471Z,36.59
2018-06-24T12:17:43.948Z,37.10
2018-06-24T12:20:13.505Z,36.96
2018-06-24T12:22:43.160Z,37.04
2018-06-24T12:25:12.359Z,36.37
2018-06-24T12:27:41.866Z,36.93
2018-06-24T12:30:11.426Z,38.21
2018-06-24T12:32:40.993Z,39.41
2018-06-24T12:35:10.622Z,40.88
2018-06-24T12:37:40.110Z,40.45
2018-06-24T12:40:10.250Z,40.58
2018-06-24T12:42:39.744Z,40.35
2018-06-24T12:45:09.294Z,39.38
2018-06-24T12:47:39.874Z,39.85
2018-06-24T12:50:09.684Z,40.02
2018-06-24T12:52:39.326Z,41.44
2018-06-24T12:55:09.400Z,41.51
2018-06-24T12:57:39.518Z,40.73
2018-06-24T13:00:09.642Z,44.03
2018-06-24T13:02:38.810Z,45.01
2018-06-24T13:05:08.493Z,43.06
2018-06-24T13:07:38.262Z,40.72
2018-06-24T13:10:08.036Z,38.98
2018-06-24T13:12:37.530Z,38.39
2018-06-24T13:15:07.663Z,38.27
2018-06-24T13:17:37.830Z,38.71
2018-06-24T13:20:07.319Z,38.33
2018-06-24T13:22:36.763Z,38.14
2018-06-24T13:25:06.725Z,39.22
2018-06-24T13:27:36.278Z,39.75
2018-06-24T13:30:06.711Z,39.53
2018-06-24T13:32:37.047Z,38.61
2018-06-24T13:35:06.535Z,37.83
2018-06-24T13:37:36.028Z,36.66
2018-06-24T13:40:06.114Z,35.66
2018-06-24T13:42:35.641Z,34.43
2018-06-24T13:45:07.650Z,34.16
2018-06-24T13:47:37.161Z,33.49
2018-06-24T13:50:06.675Z,33.21
2018-06-24T13:52:36.195Z,33.79
2018-06-24T13:55:05.754Z,34.36
2018-06-24T13:57:36.009Z,34.80
2018-06-24T14:00:06.177Z,35.95
2018-06-24T14:02:35.907Z,36.21
2018-06-24T14:05:05.107Z,36.39
2018-06-24T14:07:34.811Z,36.23
2018-06-24T14:10:04.387Z,36.25
2018-06-24T14:12:33.955Z,36.14
2018-06-24T14:15:03.515Z,38.06
2018-06-24T14:17:33.605Z,39.14
2018-06-24T14:20:03.228Z,39.50
2018-06-24T14:22:32.901Z,39.48
2018-06-24T14:25:02.383Z,39.18
2018-06-24T14:27:31.860Z,39.06
2018-06-24T14:30:01.338Z,39.64
2018-06-24T14:32:32.217Z,40.36
2018-06-24T14:35:01.703Z,39.02
2018-06-24T14:37:31.183Z,37.72
2018-06-24T14:40:00.697Z,36.39
2018-06-24T14:42:30.199Z,35.77
2018-06-24T14:44:59.717Z,35.30
2018-06-24T14:47:29.180Z,35.38
2018-06-24T14:49:58.667Z,35.26
2018-06-24T14:52:28.191Z,34.49
2018-06-24T14:54:57.748Z,34.47
2018-06-24T14:57:27.184Z,34.40
2018-06-24T14:59:56.644Z,33.98
2018-06-24T15:02:26.185Z,34.13
2018-06-24T15:04:55.713Z,34.69
2018-06-24T15:07:25.508Z,34.88
2018-06-24T15:09:54.963Z,35.21
2018-06-24T15:12:24.445Z,34.92
2018-06-24T15:14:53.943Z,34.82
2018-06-24T15:17:23.473Z,34.41
2018-06-24T15:19:52.989Z,34.05
2018-06-24T15:22:22.540Z,35.64
2018-06-24T15:24:52.039Z,36.44
2018-06-24T15:27:21.295Z,36.87
2018-06-24T15:29:50.880Z,36.36
2018-06-24T15:32:20.423Z,36.36
2018-06-24T15:34:49.910Z,36.22
2018-06-24T15:37:19.477Z,35.40
2018-06-24T15:39:48.646Z,35.69
2018-06-24T15:42:18.221Z,35.48
2018-06-24T15:44:47.819Z,34.90
2018-06-24T15:47:17.300Z,34.48
2018-06-24T15:49:46.837Z,34.07
2018-06-24T15:52:16.332Z,33.43
2018-06-24T15:54:45.930Z,32.66
2018-06-24T15:57:15.467Z,32.67
2018-06-24T15:59:44.968Z,33.08
2018-06-24T16:02:14.478Z,32.89
2018-06-24T16:04:43.992Z,32.74
2018-06-24T16:07:13.500Z,32.18
2018-06-24T16:09:42.975Z,32.15
2018-06-24T16:12:12.443Z,31.54
2018-06-24T16:14:41.967Z,31.45
2018-06-24T16:17:11.431Z,30.79
2018-06-24T16:19:40.651Z,30.33
2018-06-24T16:22:10.220Z,29.52
2018-06-24T16:24:39.739Z,29.38
2018-06-24T16:27:09.381Z,29.04
2018-06-24T16:29:39.037Z,28.39
2018-06-24T16:32:08.531Z,27.95
2018-06-24T16:34:38.107Z,27.77
2018-06-24T16:37:07.595Z,27.44
2018-06-24T16:39:37.785Z,27.13
2018-06-24T16:42:07.329Z,27.09
2018-06-24T16:44:38.926Z,26.84
2018-06-24T16:47:09.437Z,26.46
2018-06-24T16:49:39.306Z,26.29
2018-06-24T16:52:08.896Z,25.89
2018-06-24T16:54:38.577Z,25.64
2018-06-24T16:57:09.203Z,25.70
2018-06-24T16:59:38.801Z,25.57
2018-06-24T17:02:08.376Z,25.42
2018-06-24T17:04:37.916Z,25.25
2018-06-24T17:07:07.516Z,25.07
2018-06-24T17:09:37.046Z,25.26
2018-06-24T17:12:06.570Z,25.18
2018-06-24T17:14:36.104Z,25.39
2018-06-24T17:17:05.809Z,25.65
2018-06-24T17:19:35.365Z,25.86
2018-06-24T17:22:05.039Z,25.80
2018-06-24T17:24:34.604Z,25.75
2018-06-24T17:27:04.224Z,25.95
2018-06-24T17:29:33.797Z,26.24
2018-06-24T17:32:03.566Z,26.12
2018-06-24T17:34:33.435Z,25.96
2018-06-24T17:37:02.986Z,25.85
2018-06-24T17:39:32.529Z,25.93
2018-06-24T17:42:02.052Z,25.93
2018-06-24T17:44:32.035Z,26.26
2018-06-24T17:47:01.740Z,26.36
2018-06-24T17:49:31.254Z,26.04
2018-06-24T17:52:00.877Z,25.78
2018-06-24T17:54:30.364Z,25.41
2018-06-24T17:57:00.477Z,24.89
2018-06-24T17:59:29.971Z,24.68
2018-06-24T18:01:59.663Z,24.78
2018-06-24T18:04:29.311Z,24.95
2018-06-24T18:06:59.074Z,24.84
2018-06-24T18:09:28.763Z,24.71
2018-06-24T18:11:58.277Z,24.89
2018-06-24T18:14:27.892Z,24.98
2018-06-24T18:16:57.505Z,25.32
2018-06-24T18:19:27.028Z,25.57
2018-06-24T18:21:56.218Z,25.65
2018-06-24T18:24:25.979Z,25.73
2018-06-24T18:26:55.473Z,25.57
2018-06-24T18:29:25.023Z,25.60
2018-06-24T18:31:54.572Z,25.37
2018-06-24T18:34:24.740Z,25.39
2018-06-24T18:36:54.330Z,25.37
2018-06-24T18:39:23.849Z,25.19
2018-06-24T18:41:53.446Z,24.77
2018-06-24T18:44:23.057Z,24.37
2018-06-24T18:46:52.602Z,24.18
2018-06-24T18:49:22.297Z,23.91
2018-06-24T18:51:51.814Z,23.76
2018-06-24T18:54:21.290Z,23.70
2018-06-24T18:56:50.857Z,23.63
2018-06-24T18:59:20.400Z,23.40
2018-06-24T19:01:49.636Z,23.33
2018-06-24T19:04:22.536Z,23.19
2018-06-24T19:06:52.227Z,22.95
2018-06-24T19:09:21.789Z,22.93
2018-06-24T19:11:51.277Z,22.99
2018-06-24T19:14:20.819Z,22.95
2018-06-24T19:16:50.373Z,22.86
2018-06-24T19:19:20.122Z,22.79
2018-06-24T19:21:52.710Z,22.95
2018-06-24T19:24:28.790Z,22.85
2018-06-24T19:27:02.221Z,22.86
2018-06-24T19:29:31.825Z,22.79
2018-06-24T19:32:02.171Z,22.72
2018-06-24T19:34:31.745Z,22.74
2018-06-24T19:37:01.411Z,22.74
2018-06-24T19:39:30.923Z,22.70
2018-06-24T19:42:00.479Z,22.67
2018-06-24T19:44:29.950Z,22.62
2018-06-24T19:46:59.756Z,22.60
2018-06-24T19:49:29.224Z,22.53
2018-06-24T19:51:58.681Z,22.62
2018-06-24T19:54:28.283Z,22.49
2018-06-24T19:56:58.255Z,22.54
2018-06-24T19:59:28.423Z,22.60
2018-06-24T20:01:57.991Z,22.71
2018-06-24T20:04:27.567Z,22.58
2018-06-24T20:06:57.233Z,22.61
2018-06-24T20:09:28.180Z,22.53
2018-06-24T20:11:57.738Z,22.69
2018-06-24T20:14:27.004Z,22.72
2018-06-24T20:16:57.180Z,22.67
2018-06-24T20:19:26.667Z,22.68
2018-06-24T20:21:55.999Z,22.58
2018-06-24T20:24:25.444Z,22.45
2018-06-24T20:26:54.932Z,22.52
2018-06-24T20:29:24.496Z,22.42
2018-06-24T20:31:58.190Z,22.39
2018-06-24T20:34:27.710Z,22.34
2018-06-24T20:37:07.905Z,22.37
2018-06-24T20:39:37.420Z,22.27
2018-06-24T20:42:06.948Z,22.25
2018-06-24T20:44:36.414Z,22.24
2018-06-24T20:47:06.067Z,22.18
2018-06-24T20:49:36.633Z,22.10
2018-06-24T20:52:06.682Z,22.15
2018-06-24T20:54:37.523Z,22.24
2018-06-24T20:57:17.021Z,22.20
2018-06-24T20:59:46.806Z,22.17
2018-06-24T21:02:16.294Z,22.14
2018-06-24T21:04:46.066Z,22.23
2018-06-24T21:07:16.234Z,22.32
2018-06-24T21:09:45.778Z,22.20
2018-06-24T21:12:15.332Z,22.04
2018-06-24T21:14:44.848Z,22.09
2018-06-24T21:17:14.362Z,22.18
2018-06-24T21:19:43.837Z,21.99
2018-06-24T21:22:13.865Z,21.93
2018-06-24T21:24:43.482Z,21.94
2018-06-24T21:27:13.061Z,21.96
2018-06-24T21:29:42.564Z,21.97
2018-06-24T21:32:15.566Z,21.97
2018-06-24T21:34:45.105Z,21.85
2018-06-24T21:37:14.756Z,21.84
2018-06-24T21:39:44.455Z,21.89
2018-06-24T21:42:14.090Z,21.81
2018-06-24T21:44:43.619Z,21.75
2018-06-24T21:47:13.072Z,21.62
2018-06-24T21:49:42.611Z,21.71
2018-06-24T21:52:12.080Z,21.73
2018-06-24T21:54:42.819Z,21.64
2018-06-24T21:57:12.290Z,21.71
2018-06-24T21:59:41.856Z,21.75
2018-06-24T22:02:11.306Z,21.77
2018-06-24T22:04:40.782Z,21.90
2018-06-24T22:07:10.312Z,21.80
2018-06-24T22:09:39.978Z,21.86
2018-06-24T22:12:09.562Z,21.76
2018-06-24T22:14:39.048Z,21.79
2018-06-24T22:17:08.956Z,21.95
2018-06-24T22:19:38.436Z,22.02
2018-06-24T22:22:07.908Z,21.93
2018-06-24T22:24:37.392Z,22.05
2018-06-24T22:27:06.943Z,22.05
2018-06-24T22:29:36.348Z,21.93
2018-06-24T22:32:05.836Z,22.03
2018-06-24T22:34:35.302Z,21.96
2018-06-24T22:37:04.742Z,21.85
2018-06-24T22:39:34.248Z,21.81
2018-06-24T22:42:03.730Z,21.85
2018-06-24T22:44:33.173Z,21.95
2018-06-24T22:47:02.688Z,21.99
2018-06-24T22:49:32.237Z,21.99
2018-06-24T22:52:01.848Z,22.09
2018-06-24T22:54:31.375Z,22.13
2018-06-24T22:57:00.847Z,22.12
2018-06-24T22:59:47.288Z,22.09
2018-06-24T23:02:16.888Z,22.21
2018-06-24T23:04:46.428Z,22.14
2018-06-24T23:07:15.942Z,22.12
2018-06-24T23:09:45.564Z,22.23
2018-06-24T23:12:15.065Z,22.25
2018-06-24T23:14:44.592Z,22.24
2018-06-24T23:17:14.125Z,22.14
2018-06-24T23:19:43.651Z,22.14
2018-06-24T23:22:13.198Z,22.07
2018-06-24T23:24:42.733Z,22.07
2018-06-24T23:27:12.244Z,22.04
2018-06-24T23:29:41.869Z,22.08
2018-06-24T23:32:11.407Z,22.08
2018-06-24T23:34:40.898Z,21.81
2018-06-24T23:37:10.642Z,21.77
2018-06-24T23:39:40.551Z,21.84
2018-06-24T23:42:10.117Z,21.90
2018-06-24T23:44:39.594Z,21.89
2018-06-24T23:47:09.461Z,21.82
2018-06-24T23:49:39.034Z,21.77
2018-06-24T23:52:08.562Z,21.82
2018-06-24T23:54:38.059Z,21.88
2018-06-24T23:57:07.533Z,21.82
2018-06-24T23:59:37.041Z,21.81
